createdAt,value
2022-08-27T00:01:37.324Z,78.07
2022-08-27T00:04:04.206Z,76.81
2022-08-27T00:06:30.939Z,78.12
2022-08-27T00:08:58.322Z,77.49
2022-08-27T00:11:25.560Z,77.16
2022-08-27T00:13:52.620Z,78.24
2022-08-27T00:16:20.142Z,79.76
2022-08-27T00:18:48.409Z,77.97
2022-08-27T00:21:16.093Z,76.63
2022-08-27T00:23:42.696Z,76.85
2022-08-27T00:26:10.574Z,76.54
2022-08-27T00:28:37.395Z,76.33
2022-08-27T00:31:04.082Z,78.35
2022-08-27T00:33:30.811Z,77.17
2022-08-27T00:35:57.674Z,76.87
2022-08-27T00:38:24.440Z,76.21
2022-08-27T00:40:52.509Z,77.41
2022-08-27T00:43:31.943Z,77.46
2022-08-27T00:46:16.625Z,77.66
2022-08-27T00:48:43.267Z,76.78
2022-08-27T00:51:10.796Z,78.60
2022-08-27T00:53:39.388Z,77.17
2022-08-27T00:56:15.607Z,77.68
2022-08-27T00:58:45.356Z,78.24
2022-08-27T01:01:16.545Z,76.75
2022-08-27T01:03:47.581Z,76.37
2022-08-27T01:06:16.634Z,77.06
2022-08-27T01:08:52.051Z,77.75
2022-08-27T01:11:19.378Z,76.77
2022-08-27T01:13:59.726Z,76.72
2022-08-27T01:16:35.840Z,77.20
2022-08-27T01:19:08.089Z,76.67
2022-08-27T01:21:53.370Z,76.54
2022-08-27T01:24:25.743Z,76.42
2022-08-27T01:26:53.351Z,76.81
2022-08-27T01:29:20.287Z,76.38
2022-08-27T01:31:46.894Z,77.47
2022-08-27T01:34:13.619Z,76.59
2022-08-27T01:36:40.533Z,76.77
2022-08-27T01:39:08.088Z,77.58
2022-08-27T01:41:35.557Z,77.50
2022-08-27T01:44:04.294Z,77.36
2022-08-27T01:46:31.079Z,78.58
2022-08-27T01:48:57.773Z,76.58
2022-08-27T01:51:24.351Z,76.76
2022-08-27T01:53:51.154Z,77.02
2022-08-27T01:56:18.236Z,75.98
2022-08-27T01:58:45.639Z,77.36
2022-08-27T02:01:16.857Z,77.51
2022-08-27T02:03:44.690Z,76.50
2022-08-27T02:06:12.135Z,76.06
2022-08-27T02:08:39.525Z,76.21
2022-08-27T02:11:08.344Z,76.51
2022-08-27T02:13:35.286Z,76.40
2022-08-27T02:16:01.945Z,77.28
2022-08-27T02:18:28.600Z,76.34
2022-08-27T02:20:55.105Z,77.67
2022-08-27T02:23:22.698Z,76.79
2022-08-27T02:25:49.257Z,76.81
2022-08-27T02:28:16.392Z,76.26
2022-08-27T02:30:43.251Z,76.30
2022-08-27T02:33:10.991Z,76.29
2022-08-27T02:35:43.094Z,76.07
2022-08-27T02:38:12.887Z,77.10
2022-08-27T02:40:40.432Z,76.67
2022-08-27T02:43:07.739Z,76.03
2022-08-27T02:45:35.520Z,77.61
2022-08-27T02:48:02.543Z,77.78
2022-08-27T02:50:29.190Z,76.67
2022-08-27T02:52:55.889Z,78.02
2022-08-27T02:55:23.065Z,76.72
2022-08-27T02:57:49.676Z,77.00
2022-08-27T03:00:19.888Z,77.83
2022-08-27T03:02:47.079Z,77.31
2022-08-27T03:05:14.791Z,77.32
2022-08-27T03:07:42.295Z,77.19
2022-08-27T03:10:10.249Z,76.94
2022-08-27T03:12:36.918Z,77.17
2022-08-27T03:15:05.813Z,78.05
2022-08-27T03:17:51.088Z,77.83
2022-08-27T03:20:18.906Z,77.04
2022-08-27T03:22:46.011Z,78.41
2022-08-27T03:25:13.590Z,79.02
2022-08-27T03:27:40.764Z,77.46
2022-08-27T03:30:11.862Z,78.96
2022-08-27T03:32:39.165Z,78.77
2022-08-27T03:35:06.265Z,77.84
2022-08-27T03:37:35.036Z,77.60
2022-08-27T03:40:02.164Z,78.97
2022-08-27T03:42:28.940Z,79.79
2022-08-27T03:44:55.511Z,78.89
2022-08-27T03:47:23.722Z,79.46
2022-08-27T03:49:50.715Z,80.30
2022-08-27T03:52:19.333Z,79.64
2022-08-27T03:54:46.040Z,79.02
2022-08-27T03:57:13.062Z,79.90
2022-08-27T03:59:58.441Z,78.46
2022-08-27T04:02:25.253Z,80.88
2022-08-27T04:04:52.004Z,82.90
2022-08-27T04:07:19.064Z,79.70
2022-08-27T04:09:46.628Z,80.68
2022-08-27T04:12:13.196Z,79.65
2022-08-27T04:14:40.199Z,80.03
2022-08-27T04:17:06.817Z,81.77
2022-08-27T04:19:35.106Z,83.11
2022-08-27T04:22:04.336Z,81.28
2022-08-27T04:24:33.173Z,81.44
2022-08-27T04:27:01.266Z,79.73
2022-08-27T04:29:28.609Z,80.15
2022-08-27T04:31:56.128Z,78.68
2022-08-27T04:34:22.957Z,79.60
2022-08-27T04:36:50.294Z,79.51
2022-08-27T04:39:17.024Z,80.43
2022-08-27T04:41:44.668Z,80.63
2022-08-27T04:44:11.698Z,79.79
2022-08-27T04:46:40.521Z,80.15
2022-08-27T04:49:10.848Z,81.72
2022-08-27T04:51:39.969Z,82.88
2022-08-27T04:54:08.115Z,81.62
2022-08-27T04:56:35.962Z,80.05
2022-08-27T04:59:05.095Z,80.17
2022-08-27T05:01:32.349Z,81.92
2022-08-27T05:03:59.091Z,81.18
2022-08-27T05:06:25.883Z,79.79
2022-08-27T05:08:53.917Z,79.73
2022-08-27T05:11:22.607Z,79.67
2022-08-27T05:13:50.484Z,79.98
2022-08-27T05:16:22.752Z,83.04
2022-08-27T05:18:51.778Z,79.35
2022-08-27T05:21:24.049Z,80.31
2022-08-27T05:23:52.032Z,79.69
2022-08-27T05:26:18.870Z,79.93
2022-08-27T05:28:45.606Z,80.34
2022-08-27T05:31:14.631Z,79.65
2022-08-27T05:33:43.509Z,79.43
2022-08-27T05:36:23.047Z,78.32
2022-08-27T05:38:52.509Z,77.68
2022-08-27T05:41:25.019Z,78.34
2022-08-27T05:44:24.088Z,78.22
2022-08-27T05:46:52.369Z,79.36
2022-08-27T05:49:18.936Z,79.92
2022-08-27T05:51:45.610Z,79.94
2022-08-27T05:54:21.109Z,79.43
2022-08-27T05:56:51.554Z,80.92
2022-08-27T05:59:37.244Z,80.24
2022-08-27T06:02:04.315Z,80.78
2022-08-27T06:04:30.980Z,79.13
2022-08-27T06:06:57.635Z,79.65
2022-08-27T06:09:28.881Z,80.11
2022-08-27T06:12:00.257Z,79.70
2022-08-27T06:14:27.702Z,77.26
2022-08-27T06:16:54.268Z,76.47
2022-08-27T06:19:21.404Z,75.41
2022-08-27T06:22:00.047Z,74.37
2022-08-27T06:24:28.999Z,73.88
2022-08-27T06:26:55.591Z,75.14
2022-08-27T06:29:23.673Z,74.90
2022-08-27T06:31:50.478Z,76.76
2022-08-27T06:34:17.804Z,77.87
2022-08-27T06:36:44.520Z,78.53
2022-08-27T06:39:15.491Z,78.91
2022-08-27T06:41:43.898Z,78.79
2022-08-27T06:44:11.215Z,79.43
2022-08-27T06:46:38.849Z,78.59
2022-08-27T06:49:06.003Z,78.80
2022-08-27T06:51:34.626Z,79.05
2022-08-27T06:54:04.296Z,79.71
2022-08-27T06:56:31.625Z,79.69
2022-08-27T06:59:04.000Z,76.32
2022-08-27T07:01:36.992Z,81.31
2022-08-27T07:04:07.410Z,81.17
2022-08-27T07:06:35.991Z,80.29
2022-08-27T07:09:03.913Z,84.32
2022-08-27T07:11:33.807Z,78.38
2022-08-27T07:14:01.185Z,82.10
2022-08-27T07:16:29.317Z,82.06
2022-08-27T07:19:01.895Z,82.31
2022-08-27T07:21:31.821Z,78.27
2022-08-27T07:23:59.848Z,79.28
2022-08-27T07:26:26.687Z,81.35
2022-08-27T07:28:53.650Z,75.64
2022-08-27T07:31:22.422Z,74.30
2022-08-27T07:33:52.594Z,80.18
2022-08-27T07:36:21.615Z,75.63
2022-08-27T07:38:57.059Z,77.11
2022-08-27T07:41:31.996Z,73.17
2022-08-27T07:44:18.866Z,72.38
2022-08-27T07:46:47.999Z,64.62
2022-08-27T07:49:15.455Z,67.33
2022-08-27T07:51:41.990Z,67.87
2022-08-27T07:54:09.015Z,69.28
2022-08-27T07:56:35.779Z,65.93
2022-08-27T07:59:02.627Z,58.09
2022-08-27T08:01:30.181Z,60.27
2022-08-27T08:03:57.097Z,65.26
2022-08-27T08:06:24.061Z,64.00
2022-08-27T08:08:50.626Z,58.78
2022-08-27T08:11:18.839Z,60.02
2022-08-27T08:13:46.769Z,66.05
2022-08-27T08:16:13.941Z,65.27
2022-08-27T08:18:40.724Z,60.94
2022-08-27T08:21:10.713Z,64.42
2022-08-27T08:23:38.418Z,65.06
2022-08-27T08:26:05.623Z,64.31
2022-08-27T08:28:32.277Z,61.70
2022-08-27T08:30:59.406Z,63.64
2022-08-27T08:33:27.564Z,63.07
2022-08-27T08:35:54.668Z,62.97
2022-08-27T08:38:23.319Z,62.08
2022-08-27T08:40:54.513Z,62.35
2022-08-27T08:43:31.390Z,58.42
2022-08-27T08:46:03.891Z,58.93
2022-08-27T08:48:31.360Z,62.50
2022-08-27T08:51:07.637Z,62.21
2022-08-27T08:53:59.147Z,60.91
2022-08-27T08:56:31.329Z,62.07
2022-08-27T08:59:25.209Z,61.03
2022-08-27T09:01:52.043Z,62.42
2022-08-27T09:04:18.642Z,62.34
2022-08-27T09:07:00.782Z,55.30
2022-08-27T09:09:39.300Z,59.19
2022-08-27T09:12:15.248Z,60.25
2022-08-27T09:14:57.858Z,55.57
2022-08-27T09:17:24.737Z,59.72
2022-08-27T09:19:52.663Z,61.29
2022-08-27T09:22:47.249Z,59.40
2022-08-27T09:25:22.418Z,61.63
2022-08-27T09:27:54.815Z,60.28
2022-08-27T09:30:30.905Z,60.31
2022-08-27T09:33:04.264Z,59.89
2022-08-27T09:35:44.865Z,59.29
2022-08-27T09:38:19.697Z,61.52
2022-08-27T09:40:50.623Z,62.84
2022-08-27T09:43:17.329Z,62.77
2022-08-27T09:45:51.422Z,62.31
2022-08-27T09:48:25.679Z,60.70
2022-08-27T09:50:55.994Z,61.08
2022-08-27T09:53:44.240Z,58.81
2022-08-27T09:56:28.202Z,59.23
2022-08-27T09:59:06.547Z,56.49
2022-08-27T10:01:35.962Z,60.94
2022-08-27T10:04:11.352Z,60.06
2022-08-27T10:06:45.085Z,57.89
2022-08-27T10:09:33.245Z,57.64
2022-08-27T10:12:08.585Z,56.32
2022-08-27T10:14:44.121Z,54.13
2022-08-27T10:17:42.090Z,52.94
2022-08-27T10:20:25.854Z,58.49
2022-08-27T10:23:22.041Z,53.00
2022-08-27T10:25:51.522Z,58.02
2022-08-27T10:28:38.869Z,58.77
2022-08-27T10:31:19.542Z,57.29
2022-08-27T10:33:56.994Z,56.26
2022-08-27T10:36:48.219Z,57.09
2022-08-27T10:39:37.165Z,56.24
2022-08-27T10:42:26.645Z,54.38
2022-08-27T10:45:11.598Z,53.12
2022-08-27T10:47:51.788Z,53.46
2022-08-27T10:50:37.432Z,53.10
2022-08-27T10:53:21.845Z,52.85
2022-08-27T10:55:53.639Z,57.75
2022-08-27T10:58:38.670Z,57.74
2022-08-27T11:01:24.041Z,55.79
2022-08-27T11:03:56.491Z,58.03
2022-08-27T11:06:44.165Z,52.87
2022-08-27T11:09:17.240Z,56.93
2022-08-27T11:15:15.610Z,50.43
2022-08-27T11:17:45.776Z,57.60
2022-08-27T11:20:18.717Z,56.89
2022-08-27T11:22:53.990Z,55.84
2022-08-27T11:25:26.650Z,57.78
2022-08-27T11:27:56.448Z,56.82
2022-08-27T11:30:34.819Z,57.08
2022-08-27T11:33:20.202Z,57.15
2022-08-27T11:36:08.592Z,52.75
2022-08-27T11:38:50.487Z,53.79
2022-08-27T11:41:29.412Z,56.55
2022-08-27T11:44:13.864Z,57.75
2022-08-27T11:46:53.590Z,55.70
2022-08-27T11:49:48.616Z,55.85
2022-08-27T11:52:30.534Z,53.35
2022-08-27T11:55:24.021Z,54.46
2022-08-27T11:58:05.213Z,56.09
2022-08-27T12:00:36.183Z,56.96
2022-08-27T12:03:10.167Z,55.62
2022-08-27T12:05:48.337Z,54.99
2022-08-27T12:08:29.697Z,55.90
2022-08-27T12:11:30.923Z,52.63
2022-08-27T12:14:22.243Z,55.86
2022-08-27T12:17:03.713Z,52.54
2022-08-27T12:19:33.324Z,56.90
2022-08-27T12:22:24.590Z,55.95
2022-08-27T12:24:55.665Z,56.04
2022-08-27T12:27:22.460Z,56.02
2022-08-27T12:29:53.994Z,55.62
2022-08-27T12:32:24.542Z,56.11
2022-08-27T12:34:59.636Z,56.74
2022-08-27T12:37:36.008Z,56.48
2022-08-27T12:40:07.043Z,54.99
2022-08-27T12:42:33.614Z,57.74
2022-08-27T12:45:00.285Z,55.90
2022-08-27T12:47:27.247Z,53.56
2022-08-27T12:49:59.659Z,55.56
2022-08-27T12:52:34.961Z,56.47
2022-08-27T12:55:16.769Z,53.29
2022-08-27T12:57:52.485Z,55.13
2022-08-27T13:00:26.292Z,56.89
2022-08-27T13:03:11.781Z,54.26
2022-08-27T13:05:44.490Z,54.45
2022-08-27T13:08:32.059Z,56.05
2022-08-27T13:11:19.415Z,52.36
2022-08-27T13:13:45.989Z,55.77
2022-08-27T13:16:12.836Z,55.16
2022-08-27T13:18:40.541Z,55.79
2022-08-27T13:21:19.165Z,52.60
2022-08-27T13:24:02.108Z,55.41
2022-08-27T13:26:34.057Z,55.56
2022-08-27T13:29:03.705Z,54.95
2022-08-27T13:31:31.908Z,56.50
2022-08-27T13:33:59.965Z,53.38
2022-08-27T13:36:27.765Z,54.61
2022-08-27T13:39:02.447Z,56.31
2022-08-27T13:41:33.360Z,55.62
2022-08-27T13:44:31.390Z,53.95
2022-08-27T13:47:05.308Z,53.58
2022-08-27T13:49:39.734Z,55.26
2022-08-27T13:52:21.829Z,55.01
2022-08-27T13:54:51.723Z,54.28
2022-08-27T13:57:30.830Z,54.76
2022-08-27T14:00:11.181Z,55.16
2022-08-27T14:02:37.806Z,52.96
2022-08-27T14:05:27.987Z,52.26
2022-08-27T14:08:12.332Z,53.33
2022-08-27T14:10:47.296Z,54.21
2022-08-27T14:13:24.656Z,54.11
2022-08-27T14:15:54.300Z,55.19
2022-08-27T14:18:42.210Z,54.51
2022-08-27T14:21:12.866Z,50.48
2022-08-27T14:23:39.743Z,52.26
2022-08-27T14:26:07.888Z,54.50
2022-08-27T14:28:34.515Z,54.84
2022-08-27T14:31:01.080Z,54.83
2022-08-27T14:33:27.969Z,52.93
2022-08-27T14:35:54.714Z,53.23
2022-08-27T14:38:23.813Z,54.25
2022-08-27T14:40:52.909Z,54.82
2022-08-27T14:43:20.061Z,54.59
2022-08-27T14:45:50.455Z,52.41
2022-08-27T14:48:21.966Z,54.38
2022-08-27T14:50:55.543Z,54.76
2022-08-27T14:53:22.150Z,53.89
2022-08-27T14:55:51.654Z,54.38
2022-08-27T14:58:19.478Z,54.29
2022-08-27T15:03:13.135Z,54.67
2022-08-27T15:05:40.301Z,51.06
2022-08-27T15:08:07.686Z,54.59
2022-08-27T15:10:39.705Z,54.52
2022-08-27T15:13:06.481Z,54.15
2022-08-27T15:15:33.104Z,54.63
2022-08-27T15:17:59.706Z,54.47
2022-08-27T15:20:26.358Z,53.68
2022-08-27T15:22:53.102Z,54.08
2022-08-27T15:25:20.543Z,54.12
2022-08-27T15:27:47.055Z,53.69
2022-08-27T15:30:16.089Z,53.06
2022-08-27T15:32:45.894Z,53.75
2022-08-27T15:35:16.439Z,53.74
2022-08-27T15:37:44.489Z,53.49
2022-08-27T15:40:14.349Z,53.22
2022-08-27T15:42:41.511Z,53.25
2022-08-27T15:45:09.418Z,53.91
2022-08-27T15:47:36.117Z,52.74
2022-08-27T15:50:03.513Z,52.84
2022-08-27T15:52:41.091Z,53.94
2022-08-27T15:55:19.834Z,51.51
2022-08-27T15:57:46.680Z,52.88
2022-08-27T16:00:14.058Z,53.62
2022-08-27T16:02:41.514Z,53.89
2022-08-27T16:05:09.015Z,50.72
2022-08-27T16:07:35.963Z,53.28
2022-08-27T16:10:08.874Z,51.92
2022-08-27T16:12:35.963Z,53.05
2022-08-27T16:15:04.182Z,52.89
2022-08-27T16:17:30.928Z,52.80
2022-08-27T16:19:57.951Z,51.93
2022-08-27T16:22:24.623Z,53.63
2022-08-27T16:24:51.196Z,51.72
2022-08-27T16:27:17.932Z,52.58
2022-08-27T16:29:44.644Z,53.04
2022-08-27T16:32:16.821Z,51.02
2022-08-27T16:34:47.575Z,52.82
2022-08-27T16:37:22.674Z,53.29
2022-08-27T16:39:49.404Z,52.05
2022-08-27T16:42:16.056Z,52.90
2022-08-27T16:44:42.840Z,53.30
2022-08-27T16:47:09.540Z,53.35
2022-08-27T16:49:55.125Z,53.36
2022-08-27T16:52:23.569Z,53.49
2022-08-27T16:54:51.329Z,52.90
2022-08-27T16:57:18.006Z,53.29
2022-08-27T16:59:44.719Z,53.29
2022-08-27T17:02:22.285Z,51.79
2022-08-27T17:05:01.402Z,53.23
2022-08-27T17:07:40.358Z,53.50
2022-08-27T17:10:13.227Z,52.98
2022-08-27T17:12:40.736Z,52.39
2022-08-27T17:15:08.164Z,53.03
2022-08-27T17:17:34.865Z,53.53
2022-08-27T17:20:02.621Z,53.56
2022-08-27T17:22:29.312Z,53.34
2022-08-27T17:24:55.836Z,53.36
2022-08-27T17:27:22.402Z,53.47
2022-08-27T17:29:49.058Z,53.90
2022-08-27T17:32:16.163Z,53.43
2022-08-27T17:34:42.830Z,53.30
2022-08-27T17:37:09.551Z,54.14
2022-08-27T17:39:36.257Z,53.00
2022-08-27T17:42:05.201Z,53.84
2022-08-27T17:44:35.763Z,54.57
2022-08-27T17:47:05.194Z,54.85
2022-08-27T17:49:32.389Z,54.94
2022-08-27T17:52:02.342Z,55.96
2022-08-27T17:54:41.992Z,56.43
2022-08-27T17:57:29.499Z,56.39
2022-08-27T18:00:08.633Z,55.78
2022-08-27T18:02:38.802Z,56.20
2022-08-27T18:05:07.254Z,55.83
2022-08-27T18:07:39.131Z,56.05
2022-08-27T18:10:07.243Z,55.46
2022-08-27T18:12:34.022Z,55.04
2022-08-27T18:15:09.950Z,56.92
2022-08-27T18:17:42.525Z,57.33
2022-08-27T18:20:13.606Z,56.87
2022-08-27T18:22:41.995Z,58.00
2022-08-27T18:25:16.842Z,58.37
2022-08-27T18:27:45.291Z,59.74
2022-08-27T18:30:12.724Z,59.11
2022-08-27T18:32:41.074Z,58.69
2022-08-27T18:35:21.689Z,58.15
2022-08-27T18:37:48.571Z,57.88
2022-08-27T18:40:17.389Z,57.80
2022-08-27T18:42:45.242Z,57.99
2022-08-27T18:45:16.528Z,57.47
2022-08-27T18:47:43.517Z,57.85
2022-08-27T18:50:17.570Z,57.72
2022-08-27T18:52:46.511Z,57.78
2022-08-27T18:55:16.280Z,57.97
2022-08-27T18:57:43.115Z,60.25
2022-08-27T19:00:12.061Z,58.32
2022-08-27T19:02:40.082Z,58.23
2022-08-27T19:05:13.749Z,59.52
2022-08-27T19:07:40.363Z,60.55
2022-08-27T19:10:07.877Z,58.37
2022-08-27T19:12:34.575Z,58.71
2022-08-27T19:15:04.188Z,58.78
2022-08-27T19:17:34.220Z,61.18
2022-08-27T19:20:02.598Z,61.23
2022-08-27T19:22:31.876Z,59.67
2022-08-27T19:24:59.604Z,59.20
2022-08-27T19:27:28.931Z,61.50
2022-08-27T19:29:56.063Z,58.85
2022-08-27T19:32:22.780Z,61.56
2022-08-27T19:34:50.303Z,61.74
2022-08-27T19:37:20.905Z,60.20
2022-08-27T19:39:48.703Z,58.48
2022-08-27T19:42:15.521Z,60.45
2022-08-27T19:44:42.488Z,60.02
2022-08-27T19:47:11.011Z,60.00
2022-08-27T19:49:37.884Z,59.23
2022-08-27T19:52:08.331Z,60.01
2022-08-27T19:54:40.081Z,59.87
2022-08-27T19:57:18.573Z,59.91
2022-08-27T19:59:45.282Z,60.23
2022-08-27T20:02:12.626Z,58.94
2022-08-27T20:04:56.054Z,59.36
2022-08-27T20:07:26.621Z,61.33
2022-08-27T20:09:53.192Z,58.83
2022-08-27T20:12:21.862Z,59.83
2022-08-27T20:14:50.050Z,59.97
2022-08-27T20:17:18.674Z,60.48
2022-08-27T20:19:45.385Z,59.53
2022-08-27T20:22:13.253Z,60.85
2022-08-27T20:24:42.339Z,61.17
2022-08-27T20:27:08.993Z,59.55
2022-08-27T20:29:36.011Z,62.19
2022-08-27T20:32:04.353Z,60.19
2022-08-27T20:34:32.616Z,59.81
2022-08-27T20:37:02.368Z,61.52
2022-08-27T20:39:29.036Z,61.86
2022-08-27T20:41:55.645Z,60.88
2022-08-27T20:44:22.632Z,62.72
2022-08-27T20:46:52.203Z,61.73
2022-08-27T20:49:18.993Z,61.48
2022-08-27T20:51:51.242Z,63.18
2022-08-27T20:54:29.171Z,62.86
2022-08-27T20:56:55.832Z,63.18
2022-08-27T20:59:40.852Z,62.75
2022-08-27T21:02:10.462Z,64.96
2022-08-27T21:04:42.939Z,64.50
2022-08-27T21:07:09.587Z,62.14
2022-08-27T21:09:36.250Z,63.66
2022-08-27T21:12:22.585Z,64.28
2022-08-27T21:14:50.085Z,64.87
2022-08-27T21:17:21.510Z,62.77
2022-08-27T21:19:48.044Z,62.88
2022-08-27T21:22:15.875Z,62.73
2022-08-27T21:24:42.422Z,65.09
2022-08-27T21:27:09.066Z,63.06
2022-08-27T21:29:36.843Z,64.64
2022-08-27T21:32:04.931Z,68.34
2022-08-27T21:34:31.557Z,65.14
2022-08-27T21:36:59.144Z,67.32
2022-08-27T21:39:25.679Z,67.79
2022-08-27T21:41:52.674Z,66.80
2022-08-27T21:44:19.252Z,67.44
2022-08-27T21:46:45.874Z,66.81
2022-08-27T21:49:12.603Z,68.23
2022-08-27T21:51:39.242Z,65.24
2022-08-27T21:54:05.866Z,67.60
2022-08-27T21:56:33.135Z,65.69
2022-08-27T21:58:59.784Z,67.85
2022-08-27T22:01:26.375Z,65.77
2022-08-27T22:03:53.064Z,66.71
2022-08-27T22:06:19.910Z,69.16
2022-08-27T22:08:46.540Z,67.57
2022-08-27T22:11:13.273Z,68.14
2022-08-27T22:13:40.407Z,67.63
2022-08-27T22:16:07.530Z,69.93
2022-08-27T22:18:34.913Z,69.80
2022-08-27T22:21:02.675Z,66.20
2022-08-27T22:23:29.360Z,70.25
2022-08-27T22:25:55.914Z,71.48
2022-08-27T22:28:23.279Z,69.52
2022-08-27T22:30:49.950Z,67.64
2022-08-27T22:33:17.569Z,65.54
2022-08-27T22:35:44.579Z,69.72
2022-08-27T22:38:11.493Z,68.40
2022-08-27T22:40:39.381Z,67.73
2022-08-27T22:43:06.058Z,66.50
2022-08-27T22:45:34.545Z,70.00
2022-08-27T22:48:01.221Z,70.49
2022-08-27T22:50:29.832Z,65.61
2022-08-27T22:52:56.464Z,70.70
2022-08-27T22:55:41.693Z,71.29
2022-08-27T22:58:08.321Z,67.71
2022-08-27T23:00:37.486Z,67.70
2022-08-27T23:03:07.031Z,68.51
2022-08-27T23:05:41.723Z,71.80
2022-08-27T23:08:11.162Z,68.54
2022-08-27T23:10:38.618Z,67.07
2022-08-27T23:13:05.560Z,71.05
2022-08-27T23:15:32.265Z,69.43
2022-08-27T23:18:00.552Z,71.21
2022-08-27T23:20:28.393Z,68.69
2022-08-27T23:22:55.593Z,67.61
2022-08-27T23:25:43.688Z,69.19
2022-08-27T23:28:14.831Z,67.10
2022-08-27T23:30:43.332Z,71.50
2022-08-27T23:33:10.167Z,67.11
2022-08-27T23:35:36.815Z,69.69
2022-08-27T23:38:04.339Z,69.27
2022-08-27T23:40:31.128Z,73.24
2022-08-27T23:42:59.486Z,74.85
2022-08-27T23:45:27.089Z,75.32
2022-08-27T23:47:53.950Z,70.99
2022-08-27T23:50:21.491Z,71.27
2022-08-27T23:52:53.714Z,68.91
2022-08-27T23:55:20.610Z,74.06
2022-08-27T23:57:47.344Z,68.63
